createdAt,value
2023-02-24T00:02:50.912Z,32.90
2023-02-24T00:05:54.316Z,34.70
2023-02-24T00:08:57.467Z,36.20
2023-02-24T00:12:02.381Z,30.93
2023-02-24T00:15:06.327Z,33.83
2023-02-24T00:18:10.926Z,34.57
2023-02-24T00:21:16.408Z,34.90
2023-02-24T00:24:29.103Z,34.27
2023-02-24T00:27:32.576Z,32.87
2023-02-24T00:30:35.720Z,32.47
2023-02-24T00:33:40.260Z,32.60
2023-02-24T00:36:43.506Z,34.00
2023-02-24T00:39:46.779Z,32.20
2023-02-24T00:42:49.935Z,33.47
2023-02-24T00:45:53.665Z,33.60
2023-02-24T00:48:58.191Z,33.90
2023-02-24T00:52:04.737Z,34.30
2023-02-24T00:55:14.426Z,34.33
2023-02-24T00:58:19.658Z,33.37
2023-02-24T01:01:24.503Z,32.13
2023-02-24T01:04:29.444Z,34.10
2023-02-24T01:07:33.145Z,34.67
2023-02-24T01:10:36.334Z,33.57
2023-02-24T01:13:38.550Z,34.30
2023-02-24T01:16:44.616Z,34.80
2023-02-24T01:19:50.408Z,33.63
2023-02-24T01:22:54.669Z,37.10
2023-02-24T01:26:00.067Z,33.30
2023-02-24T01:29:03.889Z,34.80
2023-02-24T01:32:07.212Z,33.97
2023-02-24T01:35:14.570Z,35.17
2023-02-24T01:38:23.084Z,32.47
2023-02-24T01:41:27.844Z,31.67
2023-02-24T01:45:14.291Z,33.30
2023-02-24T01:48:17.882Z,32.20
2023-02-24T01:51:23.099Z,35.10
2023-02-24T01:54:30.397Z,30.10
2023-02-24T01:57:39.689Z,30.87
2023-02-24T02:00:47.105Z,33.40
2023-02-24T02:03:51.535Z,31.50
2023-02-24T02:06:57.485Z,32.07
2023-02-24T02:10:04.201Z,33.57
2023-02-24T02:13:07.794Z,35.57
2023-02-24T02:16:25.679Z,31.53
2023-02-24T02:20:07.150Z,36.77
2023-02-24T02:23:28.941Z,32.13
2023-02-24T02:27:08.862Z,33.83
2023-02-24T02:30:32.167Z,31.20
2023-02-24T02:34:16.950Z,31.47
2023-02-24T02:37:28.665Z,32.93
2023-02-24T02:40:38.186Z,32.80
2023-02-24T02:43:49.036Z,31.40
2023-02-24T02:46:59.377Z,33.60
2023-02-24T02:50:09.385Z,33.47
2023-02-24T02:53:19.400Z,36.50
2023-02-24T02:56:27.036Z,37.93
2023-02-24T02:59:33.602Z,35.83
2023-02-24T03:02:41.412Z,37.47
2023-02-24T03:05:50.824Z,35.77
2023-02-24T03:08:59.341Z,35.90
2023-02-24T03:12:08.345Z,35.80
2023-02-24T03:15:13.502Z,35.27
2023-02-24T03:18:21.116Z,36.43
2023-02-24T03:21:33.106Z,33.40
2023-02-24T03:24:39.112Z,31.77
2023-02-24T03:27:48.481Z,31.23
2023-02-24T03:31:00.044Z,31.70
2023-02-24T03:34:08.605Z,32.10
2023-02-24T03:37:13.541Z,29.83
2023-02-24T03:40:44.667Z,31.60
2023-02-24T03:43:51.612Z,34.40
2023-02-24T03:46:55.920Z,33.60
2023-02-24T03:49:59.109Z,32.60
2023-02-24T03:53:22.427Z,33.40
2023-02-24T03:56:40.496Z,33.90
2023-02-24T03:59:53.118Z,31.53
2023-02-24T04:03:03.456Z,35.00
2023-02-24T04:06:14.175Z,35.70
2023-02-24T04:09:23.654Z,37.30
2023-02-24T04:12:31.543Z,35.13
2023-02-24T04:15:40.741Z,33.67
2023-02-24T04:18:49.774Z,36.77
2023-02-24T04:21:53.124Z,35.87
2023-02-24T04:25:00.937Z,37.03
2023-02-24T04:28:05.181Z,36.90
2023-02-24T04:31:18.474Z,35.93
2023-02-24T04:34:21.765Z,38.23
2023-02-24T04:37:31.878Z,35.90
2023-02-24T04:40:37.716Z,38.50
2023-02-24T04:43:41.023Z,36.00
2023-02-24T04:46:44.288Z,35.60
2023-02-24T04:49:47.538Z,35.70
2023-02-24T04:52:52.202Z,36.30
2023-02-24T04:55:57.279Z,35.90
2023-02-24T04:59:00.412Z,40.20
2023-02-24T05:02:03.787Z,38.57
2023-02-24T05:05:09.308Z,38.03
2023-02-24T05:08:15.862Z,39.47
2023-02-24T05:11:20.776Z,37.63
2023-02-24T05:14:25.052Z,38.53
2023-02-24T05:17:29.084Z,37.43
2023-02-24T05:20:49.368Z,44.20
2023-02-24T05:23:54.879Z,39.17
2023-02-24T05:27:00.197Z,39.30
2023-02-24T05:30:04.046Z,40.67
2023-02-24T05:33:08.497Z,36.90
2023-02-24T05:36:15.366Z,38.77
2023-02-24T05:39:20.282Z,37.20
2023-02-24T05:42:24.847Z,38.27
2023-02-24T05:45:30.479Z,39.60
2023-02-24T05:48:35.269Z,36.13
2023-02-24T05:51:43.681Z,38.70
2023-02-24T05:54:48.291Z,37.17
2023-02-24T05:57:53.368Z,38.87
2023-02-24T06:00:58.797Z,39.47
2023-02-24T06:04:05.962Z,37.30
2023-02-24T06:07:14.630Z,39.70
2023-02-24T06:10:18.321Z,39.10
2023-02-24T06:13:22.872Z,37.60
2023-02-24T06:16:26.316Z,36.97
2023-02-24T06:19:32.024Z,37.63
2023-02-24T06:22:42.365Z,36.30
2023-02-24T06:25:45.815Z,36.93
2023-02-24T06:28:54.864Z,39.20
2023-02-24T06:31:58.988Z,37.57
2023-02-24T06:35:02.261Z,38.17
2023-02-24T06:38:05.430Z,33.90
2023-02-24T06:41:11.835Z,36.40
2023-02-24T06:44:16.404Z,38.20
2023-02-24T06:47:19.671Z,37.10
2023-02-24T06:50:23.435Z,37.50
2023-02-24T06:53:26.770Z,36.03
2023-02-24T06:56:32.268Z,36.53
2023-02-24T06:59:37.245Z,35.97
2023-02-24T07:02:40.721Z,36.70
2023-02-24T07:05:50.245Z,38.60
2023-02-24T07:08:54.148Z,38.93
2023-02-24T07:11:58.829Z,35.90
2023-02-24T07:15:03.482Z,38.30
2023-02-24T07:18:14.848Z,35.97
2023-02-24T07:21:23.555Z,38.10
2023-02-24T07:24:33.253Z,38.87
2023-02-24T07:27:37.438Z,37.50
2023-02-24T07:30:42.700Z,37.03
2023-02-24T07:33:46.743Z,36.13
2023-02-24T07:36:50.270Z,37.10
2023-02-24T07:39:53.738Z,35.90
2023-02-24T07:42:57.364Z,37.53
2023-02-24T07:46:09.058Z,37.00
2023-02-24T07:49:15.445Z,36.43
2023-02-24T07:52:18.617Z,36.80
2023-02-24T07:55:23.821Z,35.30
2023-02-24T07:58:28.486Z,36.73
2023-02-24T08:01:39.092Z,36.60
2023-02-24T08:04:48.273Z,37.50
2023-02-24T08:07:52.242Z,35.80
2023-02-24T08:11:04.076Z,37.00
2023-02-24T08:14:10.963Z,34.67
2023-02-24T08:17:19.902Z,34.97
2023-02-24T08:20:25.119Z,33.40
2023-02-24T08:23:28.355Z,31.60
2023-02-24T08:26:31.857Z,32.90
2023-02-24T08:29:40.463Z,31.83
2023-02-24T08:32:46.792Z,32.10
2023-02-24T08:36:01.288Z,29.27
2023-02-24T08:39:06.017Z,29.57
2023-02-24T08:42:14.269Z,31.77
2023-02-24T08:45:17.557Z,28.10
2023-02-24T08:48:32.343Z,31.40
2023-02-24T08:51:36.745Z,29.10
2023-02-24T08:54:48.174Z,31.77
2023-02-24T08:57:53.544Z,29.00
2023-02-24T09:00:59.593Z,30.47
2023-02-24T09:04:07.702Z,29.57
2023-02-24T09:07:15.537Z,30.83
2023-02-24T09:10:20.008Z,28.20
2023-02-24T09:13:23.259Z,33.30
2023-02-24T09:16:26.793Z,33.50
2023-02-24T09:20:01.834Z,31.40
2023-02-24T09:23:07.441Z,31.27
2023-02-24T09:26:11.236Z,28.07
2023-02-24T09:29:28.851Z,27.15
2023-02-24T09:32:34.808Z,30.00
2023-02-24T09:35:41.981Z,29.80
2023-02-24T09:39:05.491Z,32.03
2023-02-24T09:42:33.579Z,31.80
2023-02-24T09:45:41.085Z,29.10
2023-02-24T09:48:51.518Z,28.97
2023-02-24T09:52:08.997Z,27.47
2023-02-24T09:55:26.090Z,27.93
2023-02-24T09:58:44.033Z,28.13
2023-02-24T10:01:52.817Z,27.10
2023-02-24T10:05:07.510Z,26.83
2023-02-24T10:08:18.100Z,23.43
2023-02-24T10:11:33.004Z,24.73
2023-02-24T10:14:44.671Z,22.63
2023-02-24T10:17:57.268Z,21.23
2023-02-24T10:21:15.678Z,19.38
2023-02-24T10:24:29.475Z,20.77
2023-02-24T10:27:36.817Z,20.70
2023-02-24T10:30:49.137Z,21.83
2023-02-24T10:33:56.902Z,22.30
2023-02-24T10:37:07.746Z,22.25
2023-02-24T10:40:17.491Z,20.20
2023-02-24T10:43:30.543Z,20.95
2023-02-24T10:46:41.442Z,19.08
2023-02-24T10:49:57.889Z,19.13
2023-02-24T10:53:26.537Z,19.00
2023-02-24T10:56:41.966Z,18.43
2023-02-24T11:00:06.413Z,20.00
2023-02-24T11:03:22.036Z,17.70
2023-02-24T11:06:42.455Z,17.60
2023-02-24T11:09:52.235Z,19.20
2023-02-24T11:13:15.227Z,17.40
2023-02-24T11:16:36.046Z,18.13
2023-02-24T11:19:44.208Z,16.67
2023-02-24T11:22:52.129Z,15.80
2023-02-24T11:26:00.894Z,18.43
2023-02-24T11:29:24.768Z,16.97
2023-02-24T11:32:42.863Z,15.53
2023-02-24T11:35:58.179Z,16.60
2023-02-24T11:39:20.071Z,15.13
2023-02-24T11:42:28.139Z,16.00
2023-02-24T11:45:37.763Z,16.80
2023-02-24T11:48:44.886Z,15.70
2023-02-24T11:51:48.175Z,15.38
2023-02-24T11:54:56.212Z,16.67
2023-02-24T11:58:02.216Z,17.23
2023-02-24T12:01:14.480Z,16.13
2023-02-24T12:04:21.885Z,15.15
2023-02-24T12:07:30.633Z,17.63
2023-02-24T12:10:37.061Z,17.40
2023-02-24T12:13:46.763Z,17.20
2023-02-24T12:17:00.116Z,17.67
2023-02-24T12:20:07.015Z,16.90
2023-02-24T12:23:18.207Z,16.45
2023-02-24T12:26:25.190Z,15.55
2023-02-24T12:29:54.600Z,15.98
2023-02-24T12:33:10.352Z,15.65
2023-02-24T12:36:28.743Z,14.80
2023-02-24T12:39:42.128Z,15.95
2023-02-24T12:42:52.747Z,15.82
2023-02-24T12:46:04.531Z,15.90
2023-02-24T12:49:29.085Z,16.20
2023-02-24T12:52:40.439Z,14.88
2023-02-24T12:55:52.934Z,15.55
2023-02-24T12:59:02.484Z,14.82
2023-02-24T13:02:13.569Z,14.70
2023-02-24T13:05:23.879Z,14.23
2023-02-24T13:08:38.644Z,15.45
2023-02-24T13:11:47.242Z,16.10
2023-02-24T13:14:51.510Z,15.15
2023-02-24T13:17:58.235Z,15.23
2023-02-24T13:21:09.932Z,15.77
2023-02-24T13:24:22.827Z,16.63
2023-02-24T13:27:28.949Z,16.67
2023-02-24T13:30:42.026Z,16.45
2023-02-24T13:33:48.441Z,16.40
2023-02-24T13:36:53.274Z,17.42
2023-02-24T13:39:56.994Z,17.67
2023-02-24T13:43:04.750Z,17.27
2023-02-24T13:46:21.045Z,16.60
2023-02-24T13:49:35.848Z,17.13
2023-02-24T13:52:54.536Z,17.15
2023-02-24T13:56:15.714Z,15.30
2023-02-24T13:59:37.756Z,14.40
2023-02-24T14:02:44.341Z,15.68
2023-02-24T14:05:49.124Z,16.33
2023-02-24T14:08:57.337Z,15.93
2023-02-24T14:12:04.140Z,14.67
2023-02-24T14:15:12.788Z,13.90
2023-02-24T14:18:21.324Z,13.90
2023-02-24T14:21:26.205Z,14.23
2023-02-24T14:24:30.988Z,12.70
2023-02-24T14:27:34.244Z,11.77
2023-02-24T14:30:40.137Z,11.70
2023-02-24T14:33:45.788Z,13.03
2023-02-24T14:36:50.864Z,13.80
2023-02-24T14:39:57.584Z,13.10
2023-02-24T14:43:00.740Z,11.27
2023-02-24T14:46:07.344Z,11.23
2023-02-24T14:49:20.611Z,11.50
2023-02-24T14:52:35.437Z,11.87
2023-02-24T14:55:42.706Z,12.17
2023-02-24T14:58:51.506Z,13.10
2023-02-24T15:01:57.542Z,12.10
2023-02-24T15:05:01.566Z,44.17
2023-02-24T15:08:05.358Z,11.80
2023-02-24T15:11:20.051Z,11.23
2023-02-24T15:14:25.752Z,11.23
2023-02-24T15:17:29.404Z,10.90
2023-02-24T15:20:35.185Z,12.20
2023-02-24T15:23:39.854Z,12.73
2023-02-24T15:26:52.776Z,12.40
2023-02-24T15:30:02.217Z,11.40
2023-02-24T15:33:13.513Z,11.83
2023-02-24T15:36:21.626Z,11.20
2023-02-24T15:39:28.986Z,12.00
2023-02-24T15:42:36.283Z,11.07
2023-02-24T15:45:41.171Z,11.23
2023-02-24T15:48:46.228Z,11.83
2023-02-24T15:51:51.378Z,12.80
2023-02-24T15:54:55.610Z,13.87
2023-02-24T15:58:03.095Z,12.70
2023-02-24T16:01:06.867Z,12.67
2023-02-24T16:04:10.495Z,12.70
2023-02-24T16:07:18.736Z,13.60
2023-02-24T16:10:25.002Z,13.17
2023-02-24T16:13:30.495Z,11.63
2023-02-24T16:16:34.489Z,12.93
2023-02-24T16:19:38.521Z,13.53
2023-02-24T16:22:42.148Z,14.63
2023-02-24T16:25:47.095Z,19.47
2023-02-24T16:28:54.635Z,14.90
2023-02-24T16:31:58.013Z,13.57
2023-02-24T16:35:02.747Z,14.17
2023-02-24T16:38:06.876Z,11.80
2023-02-24T16:41:13.204Z,14.47
2023-02-24T16:44:18.919Z,13.57
2023-02-24T16:47:25.885Z,13.40
2023-02-24T16:50:33.892Z,12.93
2023-02-24T16:53:37.485Z,13.43
2023-02-24T16:56:40.931Z,12.87
2023-02-24T16:59:46.525Z,12.77
2023-02-24T17:02:50.784Z,13.10
2023-02-24T17:05:55.134Z,12.37
2023-02-24T17:08:58.498Z,14.10
2023-02-24T17:12:02.212Z,15.53
2023-02-24T17:15:10.419Z,13.40
2023-02-24T17:18:14.314Z,14.10
2023-02-24T17:21:18.831Z,14.07
2023-02-24T17:24:25.063Z,12.67
2023-02-24T17:27:28.970Z,14.57
2023-02-24T17:30:35.936Z,13.57
2023-02-24T17:33:41.123Z,13.20
2023-02-24T17:36:44.736Z,13.20
2023-02-24T17:39:48.847Z,14.70
2023-02-24T17:42:52.646Z,13.20
2023-02-24T17:45:58.175Z,14.50
2023-02-24T17:49:03.271Z,13.43
2023-02-24T17:52:07.724Z,15.37
2023-02-24T17:55:12.298Z,14.10
2023-02-24T17:58:16.225Z,12.70
2023-02-24T18:01:21.897Z,14.83
2023-02-24T18:04:25.578Z,18.10
2023-02-24T18:07:29.494Z,14.93
2023-02-24T18:10:34.627Z,16.60
2023-02-24T18:13:38.975Z,15.63
2023-02-24T18:16:44.182Z,16.17
2023-02-24T18:19:48.102Z,17.10
2023-02-24T18:22:52.369Z,17.13
2023-02-24T18:25:56.410Z,16.07
2023-02-24T18:29:00.817Z,15.10
2023-02-24T18:32:07.300Z,16.33
2023-02-24T18:35:11.774Z,16.07
2023-02-24T18:38:18.263Z,16.60
2023-02-24T18:41:25.209Z,17.23
2023-02-24T18:44:29.716Z,16.53
2023-02-24T18:47:35.741Z,18.13
2023-02-24T18:50:40.121Z,16.87
2023-02-24T18:53:44.945Z,15.63
2023-02-24T18:56:50.173Z,15.80
2023-02-24T18:59:59.794Z,15.70
2023-02-24T19:03:07.231Z,17.43
2023-02-24T19:06:12.704Z,17.07
2023-02-24T19:09:22.836Z,16.10
2023-02-24T19:12:29.176Z,15.67
2023-02-24T19:15:33.935Z,17.73
2023-02-24T19:18:45.135Z,16.03
2023-02-24T19:21:49.949Z,18.27
2023-02-24T19:24:54.397Z,18.43
2023-02-24T19:27:58.883Z,19.63
2023-02-24T19:31:03.265Z,18.50
2023-02-24T19:34:14.281Z,24.80
2023-02-24T19:37:21.735Z,18.73
2023-02-24T19:40:29.304Z,21.63
2023-02-24T19:43:36.307Z,16.23
2023-02-24T19:46:40.893Z,17.40
2023-02-24T19:49:46.974Z,18.70
2023-02-24T19:52:52.349Z,18.97
2023-02-24T19:55:57.570Z,16.67
2023-02-24T19:59:04.930Z,16.60
2023-02-24T20:02:11.387Z,18.30
2023-02-24T20:05:21.897Z,17.93
2023-02-24T20:08:26.671Z,18.67
2023-02-24T20:11:33.441Z,18.90
2023-02-24T20:14:38.328Z,17.67
2023-02-24T20:17:44.321Z,19.23
2023-02-24T20:20:51.646Z,18.80
2023-02-24T20:23:58.472Z,19.13
2023-02-24T20:27:05.305Z,19.93
2023-02-24T20:30:12.607Z,17.67
2023-02-24T20:33:17.421Z,16.80
2023-02-24T20:36:26.262Z,17.03
2023-02-24T20:39:29.961Z,19.80
2023-02-24T20:42:35.856Z,18.40
2023-02-24T20:45:43.100Z,45.17
2023-02-24T20:48:48.142Z,21.17
2023-02-24T20:51:57.351Z,19.43
2023-02-24T20:55:04.680Z,22.23
2023-02-24T20:58:09.297Z,20.43
2023-02-24T21:01:14.132Z,19.23
2023-02-24T21:04:20.858Z,22.70
2023-02-24T21:07:26.166Z,22.43
2023-02-24T21:10:31.118Z,21.83
2023-02-24T21:13:35.273Z,19.90
2023-02-24T21:16:39.563Z,21.00
2023-02-24T21:19:43.376Z,21.83
2023-02-24T21:22:49.049Z,21.60
2023-02-24T21:25:53.761Z,19.27
2023-02-24T21:28:59.727Z,20.50
2023-02-24T21:32:03.834Z,19.47
2023-02-24T21:35:08.434Z,22.13
2023-02-24T21:38:13.016Z,19.27
2023-02-24T21:41:19.328Z,19.03
2023-02-24T21:44:23.609Z,20.40
2023-02-24T21:47:26.869Z,20.43
2023-02-24T21:50:30.390Z,19.23
2023-02-24T21:53:39.300Z,19.40
2023-02-24T21:56:43.138Z,20.20
2023-02-24T21:59:46.752Z,19.70
2023-02-24T22:02:52.361Z,24.03
2023-02-24T22:05:55.695Z,22.43
2023-02-24T22:09:01.854Z,21.80
2023-02-24T22:12:06.160Z,23.67
2023-02-24T22:15:10.765Z,22.67
2023-02-24T22:18:13.934Z,26.37
2023-02-24T22:21:19.297Z,19.00
2023-02-24T22:24:23.880Z,19.33
2023-02-24T22:27:27.026Z,23.10
2023-02-24T22:30:30.322Z,22.00
2023-02-24T22:33:36.216Z,21.60
2023-02-24T22:36:39.683Z,19.23
2023-02-24T22:39:44.356Z,20.47
2023-02-24T22:42:47.556Z,19.27
2023-02-24T22:45:57.516Z,18.13
2023-02-24T22:49:01.462Z,18.07
2023-02-24T22:52:04.672Z,24.00
2023-02-24T22:55:10.274Z,29.30
2023-02-24T22:58:13.481Z,20.10
2023-02-24T23:01:18.730Z,20.93
2023-02-24T23:04:21.969Z,20.47
2023-02-24T23:07:25.182Z,20.33
2023-02-24T23:10:29.745Z,20.63
2023-02-24T23:13:35.373Z,21.83
2023-02-24T23:16:39.742Z,19.70
2023-02-24T23:19:42.946Z,24.90
2023-02-24T23:22:46.360Z,19.93
2023-02-24T23:25:52.709Z,17.70
2023-02-24T23:28:56.921Z,26.47
2023-02-24T23:32:00.238Z,25.53
2023-02-24T23:35:03.588Z,20.20
2023-02-24T23:38:06.725Z,19.33
2023-02-24T23:41:12.741Z,18.17
2023-02-24T23:44:16.030Z,16.77
2023-02-24T23:47:19.204Z,16.87
2023-02-24T23:50:22.498Z,16.93
2023-02-24T23:53:26.102Z,16.43
2023-02-24T23:56:31.742Z,16.97
2023-02-24T23:59:34.971Z,17.67
